Data for 08/27/2005

Time Sea-Level Adjusted Pressure Absolute Pressure Temperature Relative Humidity Dew Point   
(mb) (inHg) (mb) (inHg) (C) (F) (%) (C) (F)
00:05 1021 30.15 850 25.1 14.6 58.3 32 -1.9 28.6
00:10 1021 30.15 850 25.1 15 58.9 29 -2.9 26.8
00:15 1021 30.15 850 25.1 15.5 59.8 28 -2.8 27
00:20 1021 30.15 850 25.1 15.5 60 28 -2.7 27.2
00:25 1021 30.15 850 25.1 15.3 59.5 30 -2 28.5
00:30 1021 30.15 850 25.1 14.9 58.7 32 -1.7 28.9
00:35 1021 30.15 850 25.1 14.5 58.2 31 -2.1 28.2
00:40 1021 30.15 850 25.1 14.5 58.1 32 -2 28.5
00:45 1021 30.15 850 25.1 14.4 57.9 33 -1.7 29
00:50 1021 30.15 850 25.1 13.7 56.7 35 -1.2 29.8
00:55 1021 30.15 850 25.1 13.7 56.7 34 -1.9 28.5
01:00 1021 30.15 850 25.1 14 57.1 34 -1.5 29.3
01:05 1021 30.15 850 25.1 13.4 56.2 36 -1.4 29.4
01:10 1021 30.15 850 25.1 13.3 55.9 35 -1.8 28.7
01:15 1021 30.15 850 25.1 13.3 56 34 -2.1 28.3
01:20 1021 30.15 850 25.1 13.6 56.4 32 -2.8 27
01:25 1021 30.15 850 25.1 13.8 56.8 32 -2.7 27.2
01:30 1021 30.15 850 25.1 13.9 57 31 -3 26.6
01:35 1021 30.15 850 25.1 14.2 57.6 30 -2.9 26.8
01:40 1021 30.15 850 25.1 14.2 57.5 30 -2.9 26.8
01:45 1021 30.15 850 25.1 14.4 57.8 30 -3.1 26.5
01:50 1021 30.15 850 25.1 14.5 58.1 30 -2.8 27
01:55 1021 30.15 850 25.1 14.6 58.3 29 -3.3 26.1
02:00 1021 30.15 850 25.1 14.8 58.6 29 -3 26.7
02:05 1021 30.15 850 25.1 14.6 58.2 29 -3.2 26.3
02:10 1021 30.15 850 25.1 14.5 58.2 30 -3 26.7
02:15 1021 30.15 850 25.1 14.5 58.1 29 -3.2 26.2
02:20 1021 30.15 850 25.1 14.6 58.2 30 -2.6 27.2
02:25 1021 30.15 850 25.1 14.6 58.3 28 -3.5 25.7
02:30 1021 30.15 850 25.1 14.8 58.6 29 -2.9 26.8
02:35 1021 30.15 850 25.1 14.7 58.5 29 -3.1 26.5
02:40 1021 30.15 850 25.1 14.8 58.6 29 -3.1 26.5
02:45 1021 30.15 850 25.1 15 59 34 -0.7 30.8
02:50 1021 30.15 850 25.1 15.3 59.5 28 -3.1 26.5
02:55 1021 30.15 850 25.1 15.1 59.2 28 -3.2 26.3
03:00 1021 30.15 850 25.1 15.3 59.5 27 -3.3 26
03:05 1021 30.15 850 25.1 14.9 58.8 29 -2.8 26.9
03:10 1021 30.15 850 25.1 14.5 58.1 30 -2.7 27.1
03:15 1021 30.15 850 25.1 14.1 57.3 32 -2.4 27.7
03:20 1021 30.15 850 25.1 13.7 56.6 33 -2.4 27.6
03:25 1021 30.15 850 25.1 13.6 56.5 32 -2.9 26.7
03:30 1021 30.15 850 25.1 14 57.1 31 -2.8 26.9
03:35 1020 30.12 850 25.1 14.1 57.3 30 -3 26.6
03:40 1020 30.12 850 25.1 13.9 57 32 -2.6 27.3
03:45 1020 30.12 850 25.1 13.8 56.8 31 -2.9 26.7
03:50 1020 30.12 850 25.1 14.2 57.5 30 -3.1 26.4
03:55 1020 30.12 850 25.1 14.2 57.6 31 -2.7 27.1
04:00 1020 30.12 850 25.1 14 57.2 32 -2.5 27.5
04:05 1020 30.12 850 25.1 13.9 57 32 -2.6 27.3
04:10 1020 30.12 850 25.1 13.5 56.3 33 -2.4 27.7
04:15 1020 30.12 850 25.1 13.5 56.3 33 -2.5 27.5
04:20 1020 30.12 850 25.1 13.3 56 33 -2.6 27.2
04:25 1020 30.12 850 25.1 13.3 55.9 33 -2.5 27.6
04:30 1020 30.12 850 25.1 13 55.4 37 -1.2 29.9
04:35 1020 30.12 850 25.1 12.6 54.7 36 -2 28.4
04:40 1020 30.12 850 25.1 12.6 54.6 34 -2.7 27.2
04:45 1020 30.12 850 25.1 13 55.4 34 -2.6 27.4
04:50 1020 30.12 850 25.1 13.2 55.7 34 -2.4 27.6
04:55 1021 30.15 850 25.1 13.3 55.9 32 -2.9 26.7
05:00 1021 30.15 850 25.1 13.6 56.4 32 -2.6 27.3
05:05 1021 30.15 850 25.1 13.7 56.7 31 -2.9 26.8
05:10 1021 30.15 850 25.1 13.8 56.9 32 -2.3 27.8
05:15 1021 30.15 850 25.1 13.7 56.6 32 -2.5 27.6
05:20 1021 30.15 850 25.1 13.5 56.4 33 -2.4 27.6
05:25 1021 30.15 850 25.1 13.6 56.5 35 -1.5 29.3
05:30 1021 30.15 850 25.1 13.6 56.4 33 -2.5 27.5
05:35 1021 30.15 850 25.1 13.8 56.8 32 -2.4 27.6
05:40 1021 30.15 850 25.1 13.8 56.8 32 -2.4 27.6
05:45 1021 30.15 850 25.1 13.8 56.8 33 -2 28.4
05:50 1021 30.15 850 25.1 13.6 56.5 38 -0.4 31.2
05:55 1021 30.15 850 25.1 13.1 55.6 38 -0.8 30.6
06:00 1021 30.15 850 25.1 12.5 54.5 39 -0.9 30.4
06:05 1021 30.15 850 25.1 12.2 53.9 41 -0.7 30.7
06:10 1021 30.15 850 25.1 12 53.6 43 -0.1 31.7
06:15 1021 30.15 850 25.1 11.6 52.9 43 -0.4 31.2
06:20 1021 30.15 850 25.1 11.6 52.8 42 -0.7 30.7
06:25 1021 30.15 850 25.1 11.8 53.3 40 -1.3 29.6
06:30 1021 30.15 850 25.1 12.2 54 39 -1.1 29.9
06:35 1021 30.15 850 25.1 12.1 53.8 39 -1.5 29.3
06:40 1021 30.15 850 25.1 12.1 53.8 41 -0.8 30.6
06:45 1021 30.15 850 25.1 11.8 53.2 43 -0.5 31.2
06:50 1021 30.15 850 25.1 12.1 53.7 39 -1.6 29.2
06:55 1021 30.15 850 25.1 13.2 55.8 33 -2.5 27.5
07:00 1021 30.15 850 25.1 13.4 56.1 34 -2.1 28.3
07:05 1021 30.15 850 25.1 13.3 55.9 34 -2.2 28
07:10 1021 30.15 850 25.1 13.5 56.4 33 -2.2 28
07:15 1021 30.15 850 25.1 13.5 56.2 37 -1 30.2
07:20 1021 30.15 850 25.1 13.2 55.8 39 -0.6 31
07:25 1021 30.15 850 25.1 12.6 54.7 41 -0.1 31.9
07:30 1021 30.15 850 25.1 12.1 53.8 42 -0.2 31.6
07:35 1021 30.15 850 25.1 12.2 53.9 42 -0.3 31.5
07:40 1021 30.15 850 25.1 12.4 54.4 43 0.3 32.5
07:45 1021 30.15 851 25.13 12.3 54.1 44 0.5 33
07:50 1021 30.15 851 25.13 12.3 54.1 43 0.1 32.3
07:55 1022 30.18 851 25.13 12.7 54.8 42 0.3 32.5
08:00 1022 30.18 851 25.13 13 55.4 42 0.4 32.7
08:05 1022 30.18 851 25.13 13.4 56.1 41 0.3 32.6
08:10 1022 30.18 851 25.13 13.8 56.8 36 -0.9 30.4
08:15 1022 30.18 851 25.13 14 57.2 37 -0.3 31.4
08:20 1022 30.18 851 25.13 14.2 57.5 38 0.1 32.2
08:25 1022 30.18 851 25.13 14.3 57.7 40 0.9 33.5
08:30 1021 30.15 851 25.13 14.3 57.8 40 1.1 34.1
08:35 1021 30.15 851 25.13 14.6 58.2 40 1.2 34.1
08:40 1022 30.18 851 25.13 15.1 59.3 36 0.3 32.5
08:45 1022 30.18 851 25.13 15.9 60.7 35 0.7 33.3
08:50 1022 30.18 851 25.13 16.7 62.1 34 0.9 33.6
08:55 1022 30.18 851 25.13 17 62.6 34 1.3 34.4
09:00 1022 30.18 851 25.13 17.3 63.1 34 1.2 34.2
09:05 1022 30.18 851 25.13 17.1 62.8 34 1.4 34.5
09:10 1022 30.18 851 25.13 17.3 63.2 35 2 35.5
09:15 1022 30.18 851 25.13 17.5 63.4 36 2.3 36.1
09:20 1022 30.18 851 25.13 18.5 65.3 33 2 35.6
09:25 1022 30.18 851 25.13 19.2 66.5 29 0.8 33.4
09:30 1022 30.18 851 25.13 19.3 66.7 27 -0.2 31.7
09:35 1022 30.18 851 25.13 19 66.1 29 0.7 33.2
09:40 1022 30.18 851 25.13 18.9 66 29 0.7 33.2
09:45 1022 30.18 851 25.13 19 66.2 31 1.5 34.7
09:50 1022 30.18 851 25.13 19.5 67.1 28 0.9 33.6
09:55 1022 30.18 851 25.13 19.7 67.5 27 0.5 32.9
10:00 1022 30.18 851 25.13 20.2 68.3 25 -0.4 31.3
10:05 1022 30.18 851 25.13 21.2 70.1 24 -0.2 31.6
10:10 1022 30.18 851 25.13 21.6 70.8 24 0.3 32.5
10:15 1022 30.18 851 25.13 22 71.6 22 -0.4 31.2
10:20 1022 30.18 851 25.13 21.9 71.4 23 0.1 32.1
10:25 1022 30.18 851 25.13 22.3 72.1 23 0.3 32.6
10:30 1022 30.18 851 25.13 22.9 73.2 22 0.1 32.3
10:35 1022 30.18 851 25.13 22.7 72.8 22 0.1 32.2
10:40 1022 30.18 851 25.13 22.3 72.1 23 0.3 32.5
10:45 1022 30.18 851 25.13 23 73.3 22 0.1 32.2
10:50 1021 30.15 851 25.13 24.2 75.5 21 0.7 33.3
10:55 1021 30.15 851 25.13 24.4 75.8 20 0.5 33
11:00 1021 30.15 851 25.13 24.5 76 20 0.5 32.8
11:05 1021 30.15 851 25.13 24.6 76.2 20 0.4 32.8
11:10 1021 30.15 851 25.13 24.5 76 20 0.5 32.9
11:15 1021 30.15 851 25.13 24.3 75.7 20 0.3 32.6
11:20 1021 30.15 851 25.13 24.6 76.3 20 0.3 32.5
11:25 1021 30.15 851 25.13 24.7 76.5 20 0.5 33
11:30 1021 30.15 851 25.13 24.8 76.7 21 1.2 34.2
11:35 1021 30.15 851 25.13 24.9 76.8 20 0.8 33.5
11:40 1021 30.15 851 25.13 25.1 77.2 19 0.4 32.6
11:45 1021 30.15 850 25.1 25.2 77.3 20 0.9 33.7
11:50 1021 30.15 851 25.13 25.3 77.6 20 1 33.9
11:55 1021 30.15 850 25.1 25.2 77.4 21 1.3 34.4
12:00 1021 30.15 850 25.1 25.5 77.9 21 1.7 35.1
12:05 1021 30.15 850 25.1 25.4 77.7 20 1.1 34
12:10 1021 30.15 851 25.13 24.2 75.6 22 1.1 34
12:15 1021 30.15 850 25.1 24.8 76.6 20 0.3 32.6
12:20 1021 30.15 850 25.1 25.4 77.8 19 0.7 33.3
12:25 1021 30.15 850 25.1 25.9 78.5 19 1 33.8
12:30 1021 30.15 850 25.1 26.2 79.2 20 1.4 34.6
12:35 1021 30.15 850 25.1 26.3 79.3 20 2.1 35.7
12:40 1021 30.15 850 25.1 26.6 79.9 20 2.3 36.2
12:45 1021 30.15 850 25.1 26.6 80 19 1.7 35.1
12:50 1021 30.15 850 25.1 26.7 80 21 3.1 37.7
12:55 1021 30.15 850 25.1 26.2 79.1 20 1.7 35
13:00 1021 30.15 850 25.1 26.3 79.3 20 1.9 35.5
13:05 1021 30.15 850 25.1 26.4 79.5 20 1.7 35
13:10 1021 30.15 850 25.1 26.5 79.6 19 1.1 33.9
13:15 1021 30.15 850 25.1 26.3 79.4 19 0.9 33.6
13:20 1021 30.15 850 25.1 26.8 80.3 19 1.4 34.5
13:25 1021 30.15 850 25.1 26.7 80 19 1.1 34
13:30 1021 30.15 850 25.1 27.1 80.9 19 1.6 34.9
13:35 1021 30.15 850 25.1 27 80.5 19 1.5 34.7
13:40 1021 30.15 850 25.1 27 80.6 18 1.1 34
13:45 1021 30.15 850 25.1 27.2 81 17 0.4 32.8
13:50 1020 30.12 850 25.1 26.9 80.5 19 1.7 35.1
13:55 1020 30.12 850 25.1 27.1 80.9 19 1.6 34.9
14:00 1020 30.12 850 25.1 27.6 81.7 18 1.3 34.4
14:05 1020 30.12 850 25.1 27.5 81.6 18 1.7 35.1
14:10 1020 30.12 849 25.07 27.2 80.9 19 1.9 35.5
14:15 1020 30.12 849 25.07 27.7 81.8 18 1.5 34.7
14:20 1020 30.12 849 25.07 27.4 81.2 18 1.2 34.1
14:25 1020 30.12 849 25.07 26.7 80.1 18 0.7 33.2
14:30 1020 30.12 849 25.07 26.8 80.2 19 1.2 34.2
14:35 1020 30.12 849 25.07 27.4 81.2 18 1 33.8
14:40 1020 30.12 849 25.07 27.2 80.9 18 1.2 34.1
14:45 1020 30.12 849 25.07 27.2 80.9 17 0.7 33.2
14:50 1020 30.12 849 25.07 27.9 82.2 16 0.2 32.3
14:55 1020 30.12 849 25.07 28 82.4 16 -0.2 31.7
15:00 1020 30.12 849 25.07 27.6 81.7 18 1.4 34.6
15:05 1020 30.12 849 25.07 27.6 81.7 16 0.1 32.1
15:10 1020 30.12 849 25.07 28 82.4 17 1.2 34.2
15:15 1020 30.12 849 25.07 27.7 81.9 16 0.1 32.2
15:20 1020 30.12 849 25.07 28 82.3 16 0.1 32.2
15:25 1020 30.12 849 25.07 28.1 82.6 16 -0.1 31.8
15:30 1019 30.09 849 25.07 28.3 82.9 16 0.6 33.1
15:35 1019 30.09 849 25.07 28.4 83 16 0.6 33.1
15:40 1019 30.09 849 25.07 28.2 82.8 16 0.4 32.7
15:45 1019 30.09 849 25.07 28 82.3 16 0.2 32.3
15:50 1019 30.09 849 25.07 28.4 83.1 16 0.5 33
15:55 1019 30.09 848 25.04 28.6 83.5 16 0.4 32.8
16:00 1019 30.09 848 25.04 28.4 83 16 0.2 32.3
16:05 1019 30.09 848 25.04 27.8 82.1 16 -0.1 31.8
16:10 1019 30.09 848 25.04 28.3 82.9 16 0.5 32.8
16:15 1019 30.09 848 25.04 28.5 83.2 16 0.5 32.9
16:20 1019 30.09 848 25.04 28.8 83.8 15 0.3 32.5
16:25 1019 30.09 848 25.04 28.4 83.2 15 0 32
16:30 1019 30.09 848 25.04 28.5 83.4 16 0.3 32.6
16:35 1019 30.09 848 25.04 28.8 83.9 15 0.3 32.5
16:40 1019 30.09 848 25.04 28.6 83.5 16 0.3 32.6
16:45 1019 30.09 848 25.04 28.4 83.1 15 -0.2 31.7
16:50 1019 30.09 848 25.04 28.9 84 16 0.7 33.3
16:55 1019 30.09 848 25.04 28.5 83.3 16 0.4 32.7
17:00 1019 30.09 848 25.04 28.2 82.7 15 -0.3 31.5
17:05 1019 30.09 848 25.04 27.7 81.8 16 -0 31.9
17:10 1019 30.09 848 25.04 27.9 82.2 15 -0.4 31.3
17:15 1019 30.09 848 25.04 28.5 83.4 15 0.1 32.1
17:20 1019 30.09 848 25.04 27.8 82 16 -0.3 31.4
17:25 1019 30.09 848 25.04 27.8 82 15 -0.6 31
17:30 1019 30.09 848 25.04 28.4 83.1 15 -0.5 31
17:35 1018 30.06 848 25.04 28.7 83.6 15 -0.1 31.9
17:40 1018 30.06 848 25.04 28.8 83.8 15 -0.2 31.6
17:45 1018 30.06 848 25.04 29 84.1 15 -0.1 31.8
17:50 1018 30.06 848 25.04 29.1 84.3 15 -0 31.9
17:55 1018 30.06 848 25.04 28.8 83.9 15 -0.2 31.6
18:00 1018 30.06 848 25.04 28.9 84.1 15 0.1 32.2
18:05 1018 30.06 848 25.04 29.1 84.5 16 0.7 33.3
18:10 1018 30.06 848 25.04 28.6 83.4 15 -0.1 31.7
18:15 1018 30.06 848 25.04 28.1 82.5 15 -0.4 31.3
18:20 1018 30.06 848 25.04 27.5 81.6 16 -0.6 31
18:25 1018 30.06 847 25.01 27.6 81.6 15 -0.7 30.7
18:30 1018 30.06 847 25.01 27.7 81.8 16 0.1 32.2
18:35 1018 30.06 847 25.01 27.3 81.2 16 -0.7 30.7
18:40 1018 30.06 847 25.01 27.2 80.9 18 0.8 33.4
18:45 1018 30.06 847 25.01 27.2 80.9 17 0.6 33.1
18:50 1018 30.06 847 25.01 27 80.6 16 -0.3 31.5
18:55 1018 30.06 847 25.01 26.9 80.4 18 0.8 33.4
19:00 1018 30.06 847 25.01 26.8 80.3 17 0.4 32.7
19:05 1018 30.06 847 25.01 26.8 80.2 19 1.3 34.3
19:10 1018 30.06 847 25.01 26.6 79.9 19 1.5 34.7
19:15 1018 30.06 847 25.01 26.6 79.8 19 1.4 34.5
19:20 1018 30.06 847 25.01 26.5 79.7 19 1.5 34.8
19:25 1018 30.06 847 25.01 26.5 79.6 18 0.9 33.6
19:30 1018 30.06 847 25.01 26.3 79.3 26 5.6 42.1
19:35 1018 30.06 847 25.01 25.7 78.2 23 3.4 38.1
19:40 1018 30.06 847 25.01 25.2 77.4 24 3.5 38.4
19:45 1018 30.06 847 25.01 25.1 77.2 28 5.5 42
19:50 1018 30.06 847 25.01 25.1 77.1 24 3.2 37.8
19:55 1018 30.06 847 25.01 24.7 76.4 21 1.5 34.6
20:00 1018 30.06 847 25.01 24.7 76.4 29 5.8 42.4
20:05 1018 30.06 847 25.01 24 75.1 31 6.1 42.9
20:10 1018 30.06 847 25.01 23 73.4 35 7 44.6
20:15 1018 30.06 847 25.01 22.6 72.6 34 6.3 43.3
20:20 1018 30.06 847 25.01 22.1 71.8 34 5.6 42
20:25 1018 30.06 847 25.01 21.4 70.5 35 5.5 41.9
20:30 1018 30.06 847 25.01 20.7 69.3 39 6.3 43.3
20:35 1018 30.06 848 25.04 20 67.9 39 5.8 42.5
20:40 1018 30.06 848 25.04 19.6 67.3 36 4.3 39.8
20:45 1018 30.06 848 25.04 19.9 67.7 28 0.9 33.6
20:50 1018 30.06 848 25.04 20.9 69.6 33 4.1 39.3
20:55 1018 30.06 848 25.04 20.1 68.1 32 3 37.4
21:00 1019 30.09 848 25.04 19.9 67.9 32 3.1 37.6
21:05 1019 30.09 848 25.04 19.1 66.3 33 2.7 36.9
21:10 1019 30.09 848 25.04 19 66.2 31 1.8 35.3
21:15 1019 30.09 848 25.04 19.3 66.7 31 2 35.7
21:20 1019 30.09 848 25.04 19.5 67.1 29 1.2 34.1
21:25 1019 30.09 848 25.04 20 68 29 1.8 35.2
21:30 1019 30.09 848 25.04 19.4 66.9 32 2.2 36
21:35 1019 30.09 848 25.04 18.9 66.1 32 2.1 35.8
21:40 1019 30.09 848 25.04 18.5 65.4 34 2.5 36.4
21:45 1019 30.09 848 25.04 18.3 64.9 34 2.2 36
21:50 1019 30.09 848 25.04 18.1 64.5 32 1.4 34.6
21:55 1019 30.09 848 25.04 18.6 65.4 32 1.8 35.3
22:00 1019 30.09 848 25.04 18.7 65.6 33 2.1 35.7
22:05 1019 30.09 848 25.04 18.4 65.1 38 4.1 39.4
22:10 1019 30.09 848 25.04 18.3 64.9 33 1.9 35.3
22:15 1019 30.09 848 25.04 18.3 65 33 1.9 35.4
22:20 1019 30.09 848 25.04 18.9 65.9 30 1.1 34
22:25 1019 30.09 848 25.04 19.2 66.5 29 0.9 33.7
22:30 1019 30.09 848 25.04 19.4 67 29 1.1 33.9
22:35 1019 30.09 848 25.04 19.4 66.9 29 1.3 34.3
22:40 1019 30.09 848 25.04 19.2 66.6 30 1.3 34.4
22:45 1019 30.09 848 25.04 19.1 66.4 29 0.9 33.6
22:50 1019 30.09 848 25.04 19.7 67.5 27 0.4 32.6
22:55 1019 30.09 848 25.04 20 68 26 0 32.1
23:00 1019 30.09 848 25.04 20.4 68.7 25 -0.2 31.7
23:05 1019 30.09 848 25.04 20.6 69 25 0.1 32.2
23:10 1019 30.09 848 25.04 20.6 69 24 -0.4 31.3
23:15 1019 30.09 848 25.04 20.5 68.9 25 0 32
23:20 1019 30.09 848 25.04 20.4 68.7 25 -0.2 31.6
23:25 1019 30.09 848 25.04 20.2 68.4 25 -0.2 31.7
23:30 1019 30.09 848 25.04 20.1 68.2 25 -0.5 31.1
23:35 1019 30.09 848 25.04 20.1 68.3 24 -0.9 30.5
23:40 1019 30.09 848 25.04 20.2 68.3 24 -0.8 30.6
23:45 1019 30.09 848 25.04 20.2 68.3 24 -0.9 30.4
23:50 1019 30.09 848 25.04 20.1 68.1 24 -1 30.2
23:55 1019 30.09 848 25.04 20.1 68.2 23 -1.3 29.7
24:00 1019 30.09 848 25.04 20.2 68.3 24 -1.1 30